sensor_id;sensor_type;location;lat;lon;timestamp;P1;durP1;ratioP1;P2;durP2;ratioP2
12308;SDS011;6217;48.150;17.142;2022-10-31T00:00:06;25.65;;;12.52;;
12308;SDS011;6217;48.150;17.142;2022-10-31T00:04:16;23.50;;;13.73;;
12308;SDS011;6217;48.150;17.142;2022-10-31T00:08:22;25.85;;;13.23;;
12308;SDS011;6217;48.150;17.142;2022-10-31T00:12:28;17.77;;;10.70;;
12308;SDS011;6217;48.150;17.142;2022-10-31T00:16:34;19.50;;;12.13;;
12308;SDS011;6217;48.150;17.142;2022-10-31T00:20:40;20.27;;;12.73;;
12308;SDS011;6217;48.150;17.142;2022-10-31T00:24:46;22.23;;;12.48;;
12308;SDS011;6217;48.150;17.142;2022-10-31T00:28:51;22.38;;;12.45;;
12308;SDS011;6217;48.150;17.142;2022-10-31T00:32:57;23.88;;;12.13;;
12308;SDS011;6217;48.150;17.142;2022-10-31T00:37:03;27.15;;;12.63;;
12308;SDS011;6217;48.150;17.142;2022-10-31T00:41:10;21.33;;;12.85;;
12308;SDS011;6217;48.150;17.142;2022-10-31T00:45:19;21.23;;;10.60;;
12308;SDS011;6217;48.150;17.142;2022-10-31T00:49:26;21.67;;;11.13;;
12308;SDS011;6217;48.150;17.142;2022-10-31T00:53:32;17.95;;;9.25;;
12308;SDS011;6217;48.150;17.142;2022-10-31T00:57:39;19.65;;;11.32;;
12308;SDS011;6217;48.150;17.142;2022-10-31T01:01:45;20.95;;;9.43;;
12308;SDS011;6217;48.150;17.142;2022-10-31T01:10:11;20.20;;;11.13;;
12308;SDS011;6217;48.150;17.142;2022-10-31T01:14:17;23.58;;;10.30;;
12308;SDS011;6217;48.150;17.142;2022-10-31T01:18:23;21.55;;;10.50;;
12308;SDS011;6217;48.150;17.142;2022-10-31T01:22:29;18.10;;;10.77;;
12308;SDS011;6217;48.150;17.142;2022-10-31T01:26:38;15.77;;;9.85;;
12308;SDS011;6217;48.150;17.142;2022-10-31T01:30:44;20.73;;;9.95;;
12308;SDS011;6217;48.150;17.142;2022-10-31T01:34:50;15.45;;;9.05;;
12308;SDS011;6217;48.150;17.142;2022-10-31T01:38:57;18.77;;;8.82;;
12308;SDS011;6217;48.150;17.142;2022-10-31T01:43:09;16.63;;;10.27;;
12308;SDS011;6217;48.150;17.142;2022-10-31T01:47:19;17.98;;;10.82;;
12308;SDS011;6217;48.150;17.142;2022-10-31T01:51:36;18.17;;;10.40;;
12308;SDS011;6217;48.150;17.142;2022-10-31T01:55:47;18.40;;;10.02;;
12308;SDS011;6217;48.150;17.142;2022-10-31T01:59:55;18.95;;;10.23;;
12308;SDS011;6217;48.150;17.142;2022-10-31T02:04:05;18.08;;;10.40;;
12308;SDS011;6217;48.150;17.142;2022-10-31T02:08:14;16.00;;;10.32;;
12308;SDS011;6217;48.150;17.142;2022-10-31T02:12:35;17.08;;;10.73;;
12308;SDS011;6217;48.150;17.142;2022-10-31T02:16:41;14.50;;;8.68;;
12308;SDS011;6217;48.150;17.142;2022-10-31T02:21:31;15.95;;;9.82;;
12308;SDS011;6217;48.150;17.142;2022-10-31T02:30:18;15.20;;;8.40;;
12308;SDS011;6217;48.150;17.142;2022-10-31T02:34:31;17.35;;;10.52;;
12308;SDS011;6217;48.150;17.142;2022-10-31T02:43:45;16.65;;;10.55;;
12308;SDS011;6217;48.150;17.142;2022-10-31T02:48:22;15.05;;;10.13;;
12308;SDS011;6217;48.150;17.142;2022-10-31T02:52:33;16.88;;;9.20;;
12308;SDS011;6217;48.150;17.142;2022-10-31T02:56:43;16.00;;;9.80;;
12308;SDS011;6217;48.150;17.142;2022-10-31T03:01:03;18.45;;;10.50;;
12308;SDS011;6217;48.150;17.142;2022-10-31T03:05:28;21.30;;;11.85;;
12308;SDS011;6217;48.150;17.142;2022-10-31T03:10:00;29.58;;;14.57;;
12308;SDS011;6217;48.150;17.142;2022-10-31T03:23:15;61.88;;;26.92;;
12308;SDS011;6217;48.150;17.142;2022-10-31T03:27:29;58.05;;;25.90;;
12308;SDS011;6217;48.150;17.142;2022-10-31T03:31:45;66.30;;;27.17;;
12308;SDS011;6217;48.150;17.142;2022-10-31T03:36:00;66.57;;;27.27;;
12308;SDS011;6217;48.150;17.142;2022-10-31T03:40:10;63.17;;;26.52;;
12308;SDS011;6217;48.150;17.142;2022-10-31T03:44:21;46.65;;;22.17;;
12308;SDS011;6217;48.150;17.142;2022-10-31T03:48:36;51.58;;;23.58;;
12308;SDS011;6217;48.150;17.142;2022-10-31T03:52:45;36.40;;;16.42;;
12308;SDS011;6217;48.150;17.142;2022-10-31T03:57:23;27.00;;;14.00;;
12308;SDS011;6217;48.150;17.142;2022-10-31T04:02:05;26.13;;;12.07;;
12308;SDS011;6217;48.150;17.142;2022-10-31T04:06:31;22.38;;;12.23;;
12308;SDS011;6217;48.150;17.142;2022-10-31T04:10:56;31.52;;;15.95;;
12308;SDS011;6217;48.150;17.142;2022-10-31T04:15:19;35.60;;;17.05;;
12308;SDS011;6217;48.150;17.142;2022-10-31T04:19:43;28.10;;;13.68;;
12308;SDS011;6217;48.150;17.142;2022-10-31T04:24:04;24.92;;;13.75;;
12308;SDS011;6217;48.150;17.142;2022-10-31T04:28:25;24.33;;;11.07;;
12308;SDS011;6217;48.150;17.142;2022-10-31T04:32:46;24.23;;;11.70;;
12308;SDS011;6217;48.150;17.142;2022-10-31T04:37:07;20.52;;;10.20;;
12308;SDS011;6217;48.150;17.142;2022-10-31T04:41:28;20.88;;;10.45;;
12308;SDS011;6217;48.150;17.142;2022-10-31T04:45:55;21.55;;;11.05;;
12308;SDS011;6217;48.150;17.142;2022-10-31T04:50:16;16.55;;;10.60;;
12308;SDS011;6217;48.150;17.142;2022-10-31T04:54:38;18.10;;;12.00;;
12308;SDS011;6217;48.150;17.142;2022-10-31T04:59:25;26.02;;;11.82;;
12308;SDS011;6217;48.150;17.142;2022-10-31T05:03:47;49.25;;;22.92;;
12308;SDS011;6217;48.150;17.142;2022-10-31T05:08:08;45.53;;;23.37;;
12308;SDS011;6217;48.150;17.142;2022-10-31T05:12:30;48.85;;;23.80;;
12308;SDS011;6217;48.150;17.142;2022-10-31T05:17:16;41.78;;;20.77;;
12308;SDS011;6217;48.150;17.142;2022-10-31T05:22:16;24.00;;;12.57;;
12308;SDS011;6217;48.150;17.142;2022-10-31T05:26:37;21.92;;;11.35;;
12308;SDS011;6217;48.150;17.142;2022-10-31T05:30:58;26.58;;;17.40;;
12308;SDS011;6217;48.150;17.142;2022-10-31T05:35:21;24.70;;;15.23;;
12308;SDS011;6217;48.150;17.142;2022-10-31T05:40:14;38.47;;;24.15;;
12308;SDS011;6217;48.150;17.142;2022-10-31T05:44:38;78.38;;;37.33;;
12308;SDS011;6217;48.150;17.142;2022-10-31T05:49:13;86.93;;;41.05;;
12308;SDS011;6217;48.150;17.142;2022-10-31T05:53:53;73.28;;;38.47;;
12308;SDS011;6217;48.150;17.142;2022-10-31T05:58:15;74.05;;;36.97;;
12308;SDS011;6217;48.150;17.142;2022-10-31T06:02:43;58.25;;;32.28;;
12308;SDS011;6217;48.150;17.142;2022-10-31T06:07:34;49.47;;;29.25;;
12308;SDS011;6217;48.150;17.142;2022-10-31T06:16:18;18.42;;;10.35;;
12308;SDS011;6217;48.150;17.142;2022-10-31T06:20:40;12.57;;;7.32;;
12308;SDS011;6217;48.150;17.142;2022-10-31T06:25:04;21.02;;;8.02;;
12308;SDS011;6217;48.150;17.142;2022-10-31T06:29:32;15.40;;;6.82;;
12308;SDS011;6217;48.150;17.142;2022-10-31T06:34:01;14.70;;;7.45;;
12308;SDS011;6217;48.150;17.142;2022-10-31T06:38:26;16.50;;;6.57;;
12308;SDS011;6217;48.150;17.142;2022-10-31T06:42:58;12.13;;;6.30;;
12308;SDS011;6217;48.150;17.142;2022-10-31T06:47:24;12.43;;;7.63;;
12308;SDS011;6217;48.150;17.142;2022-10-31T06:52:04;9.55;;;6.75;;
12308;SDS011;6217;48.150;17.142;2022-10-31T06:56:30;11.15;;;7.60;;
12308;SDS011;6217;48.150;17.142;2022-10-31T07:00:58;14.10;;;9.93;;
12308;SDS011;6217;48.150;17.142;2022-10-31T07:05:24;16.88;;;9.40;;
12308;SDS011;6217;48.150;17.142;2022-10-31T07:09:49;15.00;;;10.05;;
12308;SDS011;6217;48.150;17.142;2022-10-31T07:14:16;18.05;;;10.40;;
12308;SDS011;6217;48.150;17.142;2022-10-31T07:18:41;15.48;;;10.90;;
12308;SDS011;6217;48.150;17.142;2022-10-31T07:23:07;22.35;;;9.65;;
12308;SDS011;6217;48.150;17.142;2022-10-31T07:27:35;14.00;;;8.25;;
12308;SDS011;6217;48.150;17.142;2022-10-31T07:32:05;14.10;;;8.88;;
12308;SDS011;6217;48.150;17.142;2022-10-31T07:36:33;16.73;;;8.60;;
12308;SDS011;6217;48.150;17.142;2022-10-31T07:41:00;11.85;;;8.52;;
12308;SDS011;6217;48.150;17.142;2022-10-31T07:45:28;13.45;;;9.43;;
12308;SDS011;6217;48.150;17.142;2022-10-31T07:50:13;18.50;;;9.73;;
12308;SDS011;6217;48.150;17.142;2022-10-31T07:55:00;17.80;;;11.00;;
12308;SDS011;6217;48.150;17.142;2022-10-31T07:59:24;16.77;;;11.30;;
12308;SDS011;6217;48.150;17.142;2022-10-31T08:03:51;15.48;;;12.13;;
12308;SDS011;6217;48.150;17.142;2022-10-31T08:08:34;15.43;;;13.13;;
12308;SDS011;6217;48.150;17.142;2022-10-31T08:13:04;19.42;;;14.85;;
12308;SDS011;6217;48.150;17.142;2022-10-31T08:17:34;22.17;;;14.80;;
12308;SDS011;6217;48.150;17.142;2022-10-31T08:22:00;18.08;;;11.50;;
12308;SDS011;6217;48.150;17.142;2022-10-31T08:26:24;15.32;;;12.90;;
12308;SDS011;6217;48.150;17.142;2022-10-31T08:30:51;13.77;;;10.90;;
12308;SDS011;6217;48.150;17.142;2022-10-31T08:35:54;15.80;;;10.40;;
12308;SDS011;6217;48.150;17.142;2022-10-31T08:40:38;17.42;;;12.02;;
12308;SDS011;6217;48.150;17.142;2022-10-31T08:45:03;16.73;;;12.43;;
12308;SDS011;6217;48.150;17.142;2022-10-31T08:49:30;19.02;;;11.73;;
12308;SDS011;6217;48.150;17.142;2022-10-31T08:53:54;17.02;;;11.45;;
12308;SDS011;6217;48.150;17.142;2022-10-31T08:58:42;15.38;;;11.75;;
12308;SDS011;6217;48.150;17.142;2022-10-31T09:03:11;16.85;;;13.52;;
12308;SDS011;6217;48.150;17.142;2022-10-31T09:07:47;17.60;;;12.93;;
12308;SDS011;6217;48.150;17.142;2022-10-31T09:12:12;20.48;;;14.85;;
12308;SDS011;6217;48.150;17.142;2022-10-31T09:16:55;25.00;;;18.35;;
12308;SDS011;6217;48.150;17.142;2022-10-31T09:21:28;19.60;;;14.68;;
12308;SDS011;6217;48.150;17.142;2022-10-31T09:25:55;17.45;;;15.43;;
12308;SDS011;6217;48.150;17.142;2022-10-31T09:30:34;20.92;;;15.10;;
12308;SDS011;6217;48.150;17.142;2022-10-31T09:34:59;20.65;;;17.17;;
12308;SDS011;6217;48.150;17.142;2022-10-31T09:39:25;19.25;;;14.90;;
12308;SDS011;6217;48.150;17.142;2022-10-31T09:53:59;20.48;;;18.25;;
12308;SDS011;6217;48.150;17.142;2022-10-31T09:58:28;19.23;;;17.33;;
12308;SDS011;6217;48.150;17.142;2022-10-31T10:03:01;25.77;;;21.55;;
12308;SDS011;6217;48.150;17.142;2022-10-31T10:13:01;25.05;;;19.98;;
12308;SDS011;6217;48.150;17.142;2022-10-31T10:22:45;22.05;;;19.02;;
12308;SDS011;6217;48.150;17.142;2022-10-31T10:27:34;22.55;;;19.77;;
12308;SDS011;6217;48.150;17.142;2022-10-31T10:32:24;25.13;;;19.02;;
12308;SDS011;6217;48.150;17.142;2022-10-31T10:41:29;27.80;;;20.75;;
12308;SDS011;6217;48.150;17.142;2022-10-31T10:51:07;21.55;;;19.25;;
12308;SDS011;6217;48.150;17.142;2022-10-31T11:00:34;22.83;;;20.27;;
12308;SDS011;6217;48.150;17.142;2022-10-31T11:05:21;26.27;;;20.30;;
12308;SDS011;6217;48.150;17.142;2022-10-31T11:09:50;25.55;;;20.48;;
12308;SDS011;6217;48.150;17.142;2022-10-31T11:14:15;24.88;;;20.73;;
12308;SDS011;6217;48.150;17.142;2022-10-31T11:18:41;23.55;;;19.52;;
12308;SDS011;6217;48.150;17.142;2022-10-31T11:23:16;27.13;;;18.73;;
12308;SDS011;6217;48.150;17.142;2022-10-31T11:27:42;22.40;;;18.05;;
12308;SDS011;6217;48.150;17.142;2022-10-31T11:32:16;25.30;;;20.25;;
12308;SDS011;6217;48.150;17.142;2022-10-31T11:36:50;22.73;;;19.77;;
12308;SDS011;6217;48.150;17.142;2022-10-31T11:41:18;29.27;;;21.40;;
12308;SDS011;6217;48.150;17.142;2022-10-31T11:45:53;34.47;;;23.23;;
12308;SDS011;6217;48.150;17.142;2022-10-31T11:50:31;35.90;;;25.77;;
12308;SDS011;6217;48.150;17.142;2022-10-31T11:59:39;26.55;;;22.05;;
12308;SDS011;6217;48.150;17.142;2022-10-31T12:04:24;31.23;;;23.27;;
12308;SDS011;6217;48.150;17.142;2022-10-31T12:19:04;34.58;;;26.67;;
12308;SDS011;6217;48.150;17.142;2022-10-31T12:42:16;21.50;;;16.27;;
12308;SDS011;6217;48.150;17.142;2022-10-31T12:51:58;16.02;;;13.38;;
12308;SDS011;6217;48.150;17.142;2022-10-31T12:57:27;21.58;;;15.57;;
12308;SDS011;6217;48.150;17.142;2022-10-31T13:02:06;18.23;;;13.65;;
12308;SDS011;6217;48.150;17.142;2022-10-31T13:06:48;22.63;;;15.45;;
12308;SDS011;6217;48.150;17.142;2022-10-31T13:11:22;18.05;;;14.73;;
12308;SDS011;6217;48.150;17.142;2022-10-31T13:15:58;21.50;;;16.65;;
12308;SDS011;6217;48.150;17.142;2022-10-31T13:20:29;17.90;;;14.85;;
12308;SDS011;6217;48.150;17.142;2022-10-31T13:24:58;23.83;;;18.50;;
12308;SDS011;6217;48.150;17.142;2022-10-31T13:29:33;28.75;;;21.33;;
12308;SDS011;6217;48.150;17.142;2022-10-31T13:34:21;26.08;;;20.38;;
12308;SDS011;6217;48.150;17.142;2022-10-31T13:38:54;31.63;;;19.33;;
12308;SDS011;6217;48.150;17.142;2022-10-31T13:43:59;15.80;;;10.93;;
12308;SDS011;6217;48.150;17.142;2022-10-31T13:48:34;19.50;;;14.02;;
12308;SDS011;6217;48.150;17.142;2022-10-31T13:57:41;15.43;;;10.95;;
12308;SDS011;6217;48.150;17.142;2022-10-31T14:02:14;15.20;;;11.45;;
12308;SDS011;6217;48.150;17.142;2022-10-31T14:06:47;9.70;;;6.90;;
12308;SDS011;6217;48.150;17.142;2022-10-31T14:11:23;9.27;;;7.65;;
12308;SDS011;6217;48.150;17.142;2022-10-31T14:15:55;10.07;;;7.55;;
12308;SDS011;6217;48.150;17.142;2022-10-31T14:20:25;9.18;;;7.00;;
12308;SDS011;6217;48.150;17.142;2022-10-31T14:30:06;18.73;;;11.95;;
12308;SDS011;6217;48.150;17.142;2022-10-31T14:34:39;10.95;;;8.50;;
12308;SDS011;6217;48.150;17.142;2022-10-31T14:53:12;21.85;;;15.07;;
12308;SDS011;6217;48.150;17.142;2022-10-31T14:57:48;21.52;;;16.45;;
12308;SDS011;6217;48.150;17.142;2022-10-31T15:02:39;13.38;;;9.88;;
12308;SDS011;6217;48.150;17.142;2022-10-31T15:07:17;13.13;;;10.32;;
12308;SDS011;6217;48.150;17.142;2022-10-31T15:11:45;11.80;;;9.00;;
12308;SDS011;6217;48.150;17.142;2022-10-31T15:16:10;17.92;;;10.77;;
12308;SDS011;6217;48.150;17.142;2022-10-31T15:20:41;19.00;;;11.65;;
12308;SDS011;6217;48.150;17.142;2022-10-31T15:25:18;13.55;;;8.75;;
12308;SDS011;6217;48.150;17.142;2022-10-31T15:29:51;9.98;;;8.00;;
12308;SDS011;6217;48.150;17.142;2022-10-31T15:35:02;9.93;;;6.20;;
12308;SDS011;6217;48.150;17.142;2022-10-31T15:39:10;9.80;;;7.05;;
12308;SDS011;6217;48.150;17.142;2022-10-31T15:43:36;12.13;;;6.78;;
12308;SDS011;6217;48.150;17.142;2022-10-31T15:48:02;9.80;;;6.82;;
12308;SDS011;6217;48.150;17.142;2022-10-31T15:52:44;12.05;;;8.57;;
12308;SDS011;6217;48.150;17.142;2022-10-31T15:57:11;10.63;;;7.93;;
12308;SDS011;6217;48.150;17.142;2022-10-31T16:01:28;13.27;;;8.15;;
12308;SDS011;6217;48.150;17.142;2022-10-31T16:06:00;11.60;;;8.88;;
12308;SDS011;6217;48.150;17.142;2022-10-31T16:10:21;15.05;;;9.90;;
12308;SDS011;6217;48.150;17.142;2022-10-31T16:14:30;14.95;;;9.25;;
12308;SDS011;6217;48.150;17.142;2022-10-31T16:18:44;18.98;;;9.40;;
12308;SDS011;6217;48.150;17.142;2022-10-31T16:22:50;14.98;;;10.23;;
12308;SDS011;6217;48.150;17.142;2022-10-31T16:27:05;8.82;;;7.32;;
12308;SDS011;6217;48.150;17.142;2022-10-31T16:31:29;10.80;;;8.52;;
12308;SDS011;6217;48.150;17.142;2022-10-31T16:35:43;12.98;;;9.23;;
12308;SDS011;6217;48.150;17.142;2022-10-31T16:39:48;14.65;;;8.95;;
12308;SDS011;6217;48.150;17.142;2022-10-31T16:43:54;15.77;;;10.10;;
12308;SDS011;6217;48.150;17.142;2022-10-31T16:48:05;15.82;;;9.50;;
12308;SDS011;6217;48.150;17.142;2022-10-31T16:52:17;13.93;;;9.82;;
12308;SDS011;6217;48.150;17.142;2022-10-31T16:56:27;15.45;;;10.48;;
12308;SDS011;6217;48.150;17.142;2022-10-31T17:00:36;12.90;;;9.13;;
12308;SDS011;6217;48.150;17.142;2022-10-31T17:04:43;21.75;;;10.75;;
12308;SDS011;6217;48.150;17.142;2022-10-31T17:08:49;11.90;;;9.40;;
12308;SDS011;6217;48.150;17.142;2022-10-31T17:12:55;13.00;;;9.98;;
12308;SDS011;6217;48.150;17.142;2022-10-31T17:17:02;17.02;;;9.88;;
12308;SDS011;6217;48.150;17.142;2022-10-31T17:21:13;24.20;;;13.07;;
12308;SDS011;6217;48.150;17.142;2022-10-31T17:25:28;17.73;;;12.05;;
12308;SDS011;6217;48.150;17.142;2022-10-31T17:29:39;23.88;;;12.52;;
12308;SDS011;6217;48.150;17.142;2022-10-31T17:33:45;18.38;;;13.25;;
12308;SDS011;6217;48.150;17.142;2022-10-31T17:37:51;19.30;;;12.27;;
12308;SDS011;6217;48.150;17.142;2022-10-31T17:41:57;20.10;;;13.25;;
12308;SDS011;6217;48.150;17.142;2022-10-31T17:46:03;20.38;;;13.00;;
12308;SDS011;6217;48.150;17.142;2022-10-31T17:50:09;20.58;;;14.75;;
12308;SDS011;6217;48.150;17.142;2022-10-31T17:54:15;19.73;;;13.05;;
12308;SDS011;6217;48.150;17.142;2022-10-31T17:58:22;19.90;;;14.60;;
12308;SDS011;6217;48.150;17.142;2022-10-31T18:02:28;20.73;;;15.63;;
12308;SDS011;6217;48.150;17.142;2022-10-31T18:06:34;28.08;;;16.08;;
12308;SDS011;6217;48.150;17.142;2022-10-31T18:10:40;28.83;;;16.90;;
12308;SDS011;6217;48.150;17.142;2022-10-31T18:14:46;26.15;;;16.38;;
12308;SDS011;6217;48.150;17.142;2022-10-31T18:18:53;30.42;;;17.40;;
12308;SDS011;6217;48.150;17.142;2022-10-31T18:23:06;20.17;;;14.90;;
12308;SDS011;6217;48.150;17.142;2022-10-31T18:27:12;26.08;;;17.10;;
12308;SDS011;6217;48.150;17.142;2022-10-31T18:31:18;26.48;;;15.82;;
12308;SDS011;6217;48.150;17.142;2022-10-31T18:35:24;32.58;;;17.15;;
12308;SDS011;6217;48.150;17.142;2022-10-31T18:39:30;34.13;;;16.83;;
12308;SDS011;6217;48.150;17.142;2022-10-31T18:43:36;29.35;;;15.60;;
12308;SDS011;6217;48.150;17.142;2022-10-31T18:47:42;27.45;;;16.40;;
12308;SDS011;6217;48.150;17.142;2022-10-31T18:51:48;23.42;;;14.25;;
12308;SDS011;6217;48.150;17.142;2022-10-31T18:55:54;26.50;;;15.65;;
12308;SDS011;6217;48.150;17.142;2022-10-31T19:00:00;19.38;;;12.07;;
12308;SDS011;6217;48.150;17.142;2022-10-31T19:04:10;19.17;;;12.48;;
12308;SDS011;6217;48.150;17.142;2022-10-31T19:08:16;19.88;;;13.75;;
12308;SDS011;6217;48.150;17.142;2022-10-31T19:12:22;18.85;;;13.02;;
12308;SDS011;6217;48.150;17.142;2022-10-31T19:16:28;23.40;;;14.13;;
12308;SDS011;6217;48.150;17.142;2022-10-31T19:20:36;18.17;;;13.05;;
12308;SDS011;6217;48.150;17.142;2022-10-31T19:24:42;20.17;;;13.02;;
12308;SDS011;6217;48.150;17.142;2022-10-31T19:28:48;24.73;;;15.55;;
12308;SDS011;6217;48.150;17.142;2022-10-31T19:32:54;22.52;;;13.80;;
12308;SDS011;6217;48.150;17.142;2022-10-31T19:37:00;24.50;;;14.32;;
12308;SDS011;6217;48.150;17.142;2022-10-31T19:41:08;23.17;;;15.27;;
12308;SDS011;6217;48.150;17.142;2022-10-31T19:45:22;25.77;;;16.27;;
12308;SDS011;6217;48.150;17.142;2022-10-31T19:49:27;27.23;;;15.85;;
12308;SDS011;6217;48.150;17.142;2022-10-31T19:53:33;22.42;;;14.15;;
12308;SDS011;6217;48.150;17.142;2022-10-31T19:57:40;27.50;;;15.70;;
12308;SDS011;6217;48.150;17.142;2022-10-31T20:01:46;25.63;;;15.85;;
12308;SDS011;6217;48.150;17.142;2022-10-31T20:05:52;33.65;;;18.75;;
12308;SDS011;6217;48.150;17.142;2022-10-31T20:09:58;33.03;;;23.67;;
12308;SDS011;6217;48.150;17.142;2022-10-31T20:14:04;40.92;;;27.58;;
12308;SDS011;6217;48.150;17.142;2022-10-31T20:18:11;47.28;;;27.60;;
12308;SDS011;6217;48.150;17.142;2022-10-31T20:22:16;44.08;;;29.27;;
12308;SDS011;6217;48.150;17.142;2022-10-31T20:26:22;46.47;;;28.67;;
12308;SDS011;6217;48.150;17.142;2022-10-31T20:30:29;37.50;;;24.65;;
12308;SDS011;6217;48.150;17.142;2022-10-31T20:34:34;39.70;;;25.25;;
12308;SDS011;6217;48.150;17.142;2022-10-31T20:38:41;35.13;;;22.67;;
12308;SDS011;6217;48.150;17.142;2022-10-31T20:42:47;37.35;;;22.35;;
12308;SDS011;6217;48.150;17.142;2022-10-31T20:46:52;36.30;;;21.00;;
12308;SDS011;6217;48.150;17.142;2022-10-31T20:50:59;40.65;;;21.75;;
12308;SDS011;6217;48.150;17.142;2022-10-31T20:55:10;32.75;;;20.52;;
12308;SDS011;6217;48.150;17.142;2022-10-31T20:59:16;35.15;;;19.35;;
12308;SDS011;6217;48.150;17.142;2022-10-31T21:03:24;35.38;;;21.05;;
12308;SDS011;6217;48.150;17.142;2022-10-31T21:07:31;40.55;;;21.30;;
12308;SDS011;6217;48.150;17.142;2022-10-31T21:11:36;41.22;;;20.27;;
12308;SDS011;6217;48.150;17.142;2022-10-31T21:15:42;37.45;;;20.73;;
12308;SDS011;6217;48.150;17.142;2022-10-31T21:19:48;33.60;;;18.02;;
12308;SDS011;6217;48.150;17.142;2022-10-31T21:23:55;34.88;;;19.33;;
12308;SDS011;6217;48.150;17.142;2022-10-31T21:28:07;39.70;;;17.85;;
12308;SDS011;6217;48.150;17.142;2022-10-31T21:32:14;40.55;;;18.10;;
12308;SDS011;6217;48.150;17.142;2022-10-31T21:36:20;36.92;;;19.35;;
12308;SDS011;6217;48.150;17.142;2022-10-31T21:40:26;36.58;;;18.83;;
12308;SDS011;6217;48.150;17.142;2022-10-31T21:44:33;46.92;;;20.48;;
12308;SDS011;6217;48.150;17.142;2022-10-31T21:48:39;37.38;;;18.15;;
12308;SDS011;6217;48.150;17.142;2022-10-31T21:52:47;37.92;;;18.33;;
12308;SDS011;6217;48.150;17.142;2022-10-31T21:56:54;38.53;;;18.75;;
12308;SDS011;6217;48.150;17.142;2022-10-31T22:01:01;38.50;;;19.83;;
12308;SDS011;6217;48.150;17.142;2022-10-31T22:05:07;39.47;;;20.55;;
12308;SDS011;6217;48.150;17.142;2022-10-31T22:09:13;28.45;;;15.38;;
12308;SDS011;6217;48.150;17.142;2022-10-31T22:13:20;44.78;;;22.38;;
12308;SDS011;6217;48.150;17.142;2022-10-31T22:17:26;42.72;;;21.15;;
12308;SDS011;6217;48.150;17.142;2022-10-31T22:21:36;46.88;;;21.73;;
12308;SDS011;6217;48.150;17.142;2022-10-31T22:25:45;40.95;;;19.30;;
12308;SDS011;6217;48.150;17.142;2022-10-31T22:29:51;48.45;;;22.77;;
12308;SDS011;6217;48.150;17.142;2022-10-31T22:33:56;45.47;;;23.25;;
12308;SDS011;6217;48.150;17.142;2022-10-31T22:38:03;48.38;;;23.15;;
12308;SDS011;6217;48.150;17.142;2022-10-31T22:42:09;54.55;;;24.50;;
12308;SDS011;6217;48.150;17.142;2022-10-31T22:46:16;61.47;;;25.90;;
12308;SDS011;6217;48.150;17.142;2022-10-31T22:50:24;48.33;;;23.77;;
12308;SDS011;6217;48.150;17.142;2022-10-31T22:54:30;55.47;;;26.45;;
12308;SDS011;6217;48.150;17.142;2022-10-31T22:58:36;50.55;;;25.05;;
12308;SDS011;6217;48.150;17.142;2022-10-31T23:02:42;56.65;;;25.25;;
12308;SDS011;6217;48.150;17.142;2022-10-31T23:06:48;56.28;;;23.63;;
12308;SDS011;6217;48.150;17.142;2022-10-31T23:10:54;54.85;;;25.52;;
12308;SDS011;6217;48.150;17.142;2022-10-31T23:15:00;54.35;;;24.75;;
12308;SDS011;6217;48.150;17.142;2022-10-31T23:19:06;53.58;;;22.83;;
12308;SDS011;6217;48.150;17.142;2022-10-31T23:23:14;56.10;;;25.55;;
12308;SDS011;6217;48.150;17.142;2022-10-31T23:27:20;58.42;;;25.25;;
12308;SDS011;6217;48.150;17.142;2022-10-31T23:31:28;52.65;;;23.83;;
12308;SDS011;6217;48.150;17.142;2022-10-31T23:35:34;60.60;;;25.33;;
12308;SDS011;6217;48.150;17.142;2022-10-31T23:39:40;51.10;;;26.08;;
12308;SDS011;6217;48.150;17.142;2022-10-31T23:43:45;50.38;;;22.38;;
12308;SDS011;6217;48.150;17.142;2022-10-31T23:47:53;58.40;;;26.55;;
12308;SDS011;6217;48.150;17.142;2022-10-31T23:51:58;66.25;;;25.17;;
12308;SDS011;6217;48.150;17.142;2022-10-31T23:56:05;48.72;;;20.48;;
